createdAt,value
2018-07-29T00:00:19.342Z,21.40
2018-07-29T00:01:19.260Z,21.42
2018-07-29T00:02:19.156Z,21.36
2018-07-29T00:03:19.044Z,21.28
2018-07-29T00:04:19.068Z,21.36
2018-07-29T00:05:18.881Z,21.27
2018-07-29T00:06:19.924Z,21.24
2018-07-29T00:07:18.731Z,21.26
2018-07-29T00:08:18.678Z,21.22
2018-07-29T00:09:18.574Z,21.27
2018-07-29T00:10:18.594Z,21.28
2018-07-29T00:11:18.439Z,21.27
2018-07-29T00:12:18.401Z,21.21
2018-07-29T00:13:18.305Z,21.19
2018-07-29T00:14:18.316Z,21.13
2018-07-29T00:15:18.114Z,21.12
2018-07-29T00:16:18.119Z,21.12
2018-07-29T00:17:17.951Z,21.12
2018-07-29T00:18:17.971Z,21.13
2018-07-29T00:19:17.803Z,21.22
2018-07-29T00:20:17.832Z,21.26
2018-07-29T00:21:17.668Z,21.26
2018-07-29T00:22:17.653Z,21.53
2018-07-29T00:23:17.519Z,21.58
2018-07-29T00:24:17.458Z,21.43
2018-07-29T00:25:17.320Z,21.43
2018-07-29T00:26:17.368Z,21.42
2018-07-29T00:27:17.171Z,21.40
2018-07-29T00:28:17.220Z,21.28
2018-07-29T00:29:17.008Z,21.26
2018-07-29T00:30:16.990Z,21.16
2018-07-29T00:31:16.864Z,21.19
2018-07-29T00:32:16.923Z,21.13
2018-07-29T00:33:16.705Z,21.08
2018-07-29T00:34:16.735Z,21.26
2018-07-29T00:35:16.557Z,21.26
2018-07-29T00:36:16.523Z,21.27
2018-07-29T00:37:16.401Z,21.37
2018-07-29T00:39:58.676Z,21.49
2018-07-29T00:42:40.686Z,21.48
2018-07-29T00:46:04.180Z,21.53
2018-07-29T00:47:04.200Z,21.49
2018-07-29T00:49:28.681Z,21.52
2018-07-29T01:08:20.414Z,21.48
2018-07-29T01:09:20.414Z,21.45
2018-07-29T01:10:20.270Z,21.55
2018-07-29T01:11:20.225Z,21.55
2018-07-29T01:12:20.082Z,21.49
2018-07-29T01:13:20.036Z,21.51
2018-07-29T01:14:19.924Z,21.52
2018-07-29T01:15:19.973Z,21.45
2018-07-29T01:16:19.769Z,21.37
2018-07-29T01:17:19.752Z,21.28
2018-07-29T01:18:19.617Z,21.28
2018-07-29T01:19:19.664Z,21.37
2018-07-29T01:20:19.477Z,21.27
2018-07-29T01:21:19.503Z,21.30
2018-07-29T01:22:19.315Z,21.24
2018-07-29T01:23:19.283Z,21.26
2018-07-29T01:24:19.153Z,21.38
2018-07-29T01:25:19.188Z,21.36
2018-07-29T01:26:18.994Z,21.34
2018-07-29T01:27:19.040Z,21.48
2018-07-29T01:28:18.839Z,21.49
2018-07-29T01:29:18.805Z,21.36
2018-07-29T01:30:18.694Z,21.40
2018-07-29T01:31:18.749Z,21.42
2018-07-29T01:32:18.524Z,21.37
2018-07-29T01:33:18.526Z,21.26
2018-07-29T01:34:18.375Z,21.22
2018-07-29T01:35:18.334Z,21.36
2018-07-29T01:36:18.231Z,21.24
2018-07-29T01:37:18.279Z,21.30
2018-07-29T01:38:18.058Z,21.19
2018-07-29T01:39:18.053Z,21.31
2018-07-29T01:40:17.904Z,21.27
2018-07-29T01:43:00.205Z,21.34
2018-07-29T01:44:00.177Z,21.40
2018-07-29T01:45:00.036Z,21.27
2018-07-29T01:45:59.983Z,21.24
2018-07-29T01:46:59.894Z,21.24
2018-07-29T01:47:59.934Z,21.31
2018-07-29T01:48:59.720Z,21.26
2018-07-29T01:49:59.800Z,21.36
2018-07-29T01:50:59.568Z,21.22
2018-07-29T01:51:59.605Z,21.22
2018-07-29T01:52:59.424Z,21.19
2018-07-29T01:55:41.686Z,21.24
2018-07-29T01:56:44.184Z,21.26
2018-07-29T01:57:41.545Z,21.15
2018-07-29T01:58:44.343Z,21.16
2018-07-29T01:59:41.382Z,21.21
2018-07-29T02:02:35.188Z,21.22
2018-07-29T02:03:35.412Z,21.12
2018-07-29T02:04:35.034Z,21.28
2018-07-29T02:05:35.021Z,21.34
2018-07-29T02:06:34.870Z,21.42
2018-07-29T02:07:34.831Z,21.40
2018-07-29T02:08:34.817Z,21.22
2018-07-29T02:09:34.767Z,21.19
2018-07-29T02:10:34.555Z,21.21
2018-07-29T02:11:34.545Z,21.13
2018-07-29T02:12:34.404Z,21.08
2018-07-29T02:14:59.189Z,21.01
2018-07-29T02:30:51.603Z,20.81
2018-07-29T02:31:51.368Z,20.88
2018-07-29T02:32:51.380Z,20.96
2018-07-29T02:33:51.225Z,20.90
2018-07-29T02:34:51.188Z,20.78
2018-07-29T02:35:51.047Z,20.85
2018-07-29T02:36:50.996Z,20.81
2018-07-29T02:37:50.889Z,20.81
2018-07-29T02:38:50.907Z,20.78
2018-07-29T02:39:50.774Z,20.87
2018-07-29T02:40:50.665Z,20.82
2018-07-29T02:41:50.576Z,20.88
2018-07-29T02:44:32.727Z,20.93
2018-07-29T02:45:32.721Z,20.88
2018-07-29T02:46:32.563Z,20.96
2018-07-29T02:47:32.535Z,20.87
2018-07-29T02:48:32.379Z,20.82
2018-07-29T02:49:32.375Z,20.90
2018-07-29T02:50:32.236Z,20.94
2018-07-29T02:51:32.262Z,20.97
2018-07-29T02:52:32.077Z,20.97
2018-07-29T02:53:32.065Z,20.93
2018-07-29T02:54:31.922Z,20.98
2018-07-29T02:55:31.904Z,20.87
2018-07-29T02:56:31.782Z,20.81
2018-07-29T02:59:13.720Z,20.96
2018-07-29T03:00:13.718Z,20.97
2018-07-29T03:01:13.552Z,20.98
2018-07-29T03:02:13.590Z,21.09
2018-07-29T03:03:13.390Z,21.03
2018-07-29T03:05:38.724Z,21.11
2018-07-29T03:06:38.714Z,21.05
2018-07-29T03:07:38.558Z,21.01
2018-07-29T03:08:38.512Z,20.94
2018-07-29T03:09:38.397Z,21.11
2018-07-29T03:10:38.463Z,20.96
2018-07-29T03:11:38.231Z,21.00
2018-07-29T03:12:38.243Z,20.97
2018-07-29T03:13:38.077Z,20.97
2018-07-29T03:14:38.050Z,20.93
2018-07-29T03:15:37.962Z,20.98
2018-07-29T03:16:37.950Z,20.97
2018-07-29T03:17:37.773Z,21.01
2018-07-29T03:18:37.758Z,20.98
2018-07-29T03:19:37.616Z,21.03
2018-07-29T03:20:38.624Z,21.15
2018-07-29T03:21:37.493Z,21.19
2018-07-29T03:22:37.480Z,21.24
2018-07-29T03:23:37.300Z,21.26
2018-07-29T03:24:37.294Z,21.16
2018-07-29T03:25:37.162Z,21.21
2018-07-29T03:26:37.106Z,21.22
2018-07-29T03:27:36.999Z,21.24
2018-07-29T03:28:37.042Z,21.28
2018-07-29T03:29:36.832Z,21.28
2018-07-29T03:30:36.832Z,21.22
2018-07-29T03:31:36.698Z,21.21
2018-07-29T03:32:36.734Z,21.12
2018-07-29T03:33:36.529Z,21.08
2018-07-29T03:34:36.582Z,21.16
2018-07-29T03:35:36.394Z,21.09
2018-07-29T03:36:36.391Z,21.16
2018-07-29T03:37:36.214Z,21.16
2018-07-29T03:38:36.256Z,21.08
2018-07-29T03:39:36.066Z,21.15
2018-07-29T03:40:36.065Z,21.19
2018-07-29T03:41:35.914Z,21.08
2018-07-29T03:42:35.878Z,21.16
2018-07-29T03:43:35.754Z,21.24
2018-07-29T03:46:17.713Z,21.21
2018-07-29T03:47:17.772Z,21.18
2018-07-29T03:48:17.562Z,21.27
2018-07-29T03:49:17.586Z,21.26
2018-07-29T04:15:59.377Z,21.40
2018-07-29T04:16:59.155Z,21.40
2018-07-29T04:18:00.197Z,21.40
2018-07-29T04:18:58.999Z,21.37
2018-07-29T04:19:58.950Z,21.38
2018-07-29T04:20:58.847Z,21.49
2018-07-29T04:21:58.865Z,21.53
2018-07-29T04:22:58.697Z,21.64
2018-07-29T04:23:58.674Z,21.55
2018-07-29T04:24:58.523Z,21.59
2018-07-29T04:25:58.479Z,21.48
2018-07-29T04:26:58.385Z,21.45
2018-07-29T04:27:58.439Z,21.37
2018-07-29T04:28:58.220Z,21.40
2018-07-29T04:29:58.202Z,21.37
2018-07-29T04:30:58.057Z,21.40
2018-07-29T04:31:58.115Z,21.42
2018-07-29T04:32:57.912Z,21.42
2018-07-29T04:33:57.948Z,21.36
2018-07-29T04:34:57.758Z,21.18
2018-07-29T04:35:57.752Z,21.13
2018-07-29T04:36:57.621Z,21.34
2018-07-29T04:37:57.842Z,21.36
2018-07-29T04:38:57.468Z,21.40
2018-07-29T04:41:39.732Z,21.58
2018-07-29T04:42:39.752Z,21.49
2018-07-29T04:43:39.598Z,21.40
2018-07-29T04:46:21.745Z,21.52
2018-07-29T04:47:21.765Z,21.52
2018-07-29T04:48:21.609Z,21.53
2018-07-29T04:49:21.594Z,21.58
2018-07-29T04:50:21.429Z,21.55
2018-07-29T04:51:21.479Z,21.51
2018-07-29T04:52:21.268Z,21.58
2018-07-29T04:53:21.294Z,21.58
2018-07-29T04:54:21.134Z,21.52
2018-07-29T04:55:21.099Z,21.63
2018-07-29T04:56:20.955Z,21.52
2018-07-29T04:57:20.920Z,21.55
2018-07-29T04:58:20.808Z,21.58
2018-07-29T04:59:21.770Z,21.56
2018-07-29T05:00:20.684Z,21.59
2018-07-29T05:01:20.626Z,21.73
2018-07-29T05:02:20.493Z,21.79
2018-07-29T05:03:20.550Z,21.68
2018-07-29T05:04:20.353Z,21.68
2018-07-29T05:05:20.342Z,21.56
2018-07-29T05:06:20.184Z,21.61
2018-07-29T05:09:02.255Z,21.37
2018-07-29T05:10:02.259Z,21.43
2018-07-29T05:11:02.120Z,21.53
2018-07-29T05:12:02.069Z,21.64
2018-07-29T05:13:01.935Z,21.68
2018-07-29T05:14:02.938Z,21.64
2018-07-29T05:15:01.777Z,21.74
2018-07-29T05:17:43.745Z,21.63
2018-07-29T05:20:25.774Z,21.64
2018-07-29T05:21:25.772Z,21.63
2018-07-29T05:22:25.591Z,21.74
2018-07-29T05:23:25.593Z,21.74
2018-07-29T05:24:25.467Z,21.71
2018-07-29T05:25:25.425Z,21.70
2018-07-29T05:26:25.278Z,21.63
2018-07-29T05:27:25.307Z,21.66
2018-07-29T05:28:25.120Z,21.74
2018-07-29T05:29:25.139Z,21.81
2018-07-29T05:30:24.964Z,21.85
2018-07-29T05:33:07.252Z,21.63
2018-07-29T05:34:07.233Z,21.66
2018-07-29T05:35:07.110Z,21.74
2018-07-29T05:36:07.152Z,21.77
2018-07-29T05:37:06.937Z,21.74
2018-07-29T05:38:06.945Z,21.67
2018-07-29T05:39:06.785Z,21.66
2018-07-29T05:40:06.788Z,21.67
2018-07-29T05:41:06.655Z,21.85
2018-07-29T05:42:06.669Z,21.77
2018-07-29T05:43:06.473Z,21.82
2018-07-29T05:45:48.772Z,21.86
2018-07-29T05:46:48.789Z,21.91
2018-07-29T06:14:10.487Z,22.14
2018-07-29T06:15:10.396Z,22.15
2018-07-29T06:16:11.367Z,22.29
2018-07-29T06:17:10.239Z,22.39
2018-07-29T06:19:52.266Z,22.48
2018-07-29T06:20:52.196Z,22.41
2018-07-29T06:21:52.139Z,22.36
2018-07-29T06:22:52.047Z,22.36
2018-07-29T06:23:51.976Z,22.48
2018-07-29T06:24:51.885Z,22.45
2018-07-29T06:25:51.853Z,22.52
2018-07-29T06:26:51.762Z,22.86
2018-07-29T06:27:51.654Z,23.94
2018-07-29T06:28:51.573Z,24.53
2018-07-29T06:29:51.492Z,24.68
2018-07-29T06:30:51.427Z,24.98
2018-07-29T06:31:51.413Z,25.14
2018-07-29T06:32:51.276Z,25.67
2018-07-29T06:33:51.187Z,25.79
2018-07-29T06:34:51.116Z,25.36
2018-07-29T06:35:51.046Z,26.23
2018-07-29T06:36:51.992Z,26.42
2018-07-29T06:37:50.879Z,26.51
2018-07-29T06:38:50.812Z,27.12
2018-07-29T06:39:50.734Z,27.09
2018-07-29T06:40:50.735Z,27.45
2018-07-29T06:41:50.636Z,26.86
2018-07-29T06:42:50.510Z,27.18
2018-07-29T06:43:50.431Z,27.11
2018-07-29T06:44:50.387Z,26.69
2018-07-29T06:45:50.292Z,25.39
2018-07-29T06:46:50.243Z,25.09
2018-07-29T06:47:50.157Z,25.08
2018-07-29T06:48:50.067Z,25.42
2018-07-29T06:49:49.995Z,25.57
2018-07-29T06:50:49.972Z,25.22
2018-07-29T06:51:49.860Z,24.86
2018-07-29T06:52:49.797Z,24.89
2018-07-29T06:53:49.698Z,24.82
2018-07-29T06:54:49.629Z,24.44
2018-07-29T06:55:49.557Z,24.66
2018-07-29T06:56:49.477Z,24.68
2018-07-29T06:57:49.422Z,24.30
2018-07-29T06:58:49.349Z,23.97
2018-07-29T06:59:49.275Z,23.92
2018-07-29T07:00:49.186Z,23.86
2018-07-29T07:01:49.108Z,23.72
2018-07-29T07:02:49.070Z,24.06
2018-07-29T07:03:48.957Z,24.02
2018-07-29T07:04:48.900Z,24.21
2018-07-29T07:05:48.809Z,24.11
2018-07-29T07:06:48.740Z,24.29
2018-07-29T07:07:48.692Z,24.11
2018-07-29T07:08:48.601Z,24.06
2018-07-29T07:09:48.523Z,24.16
2018-07-29T07:10:48.445Z,24.45
2018-07-29T07:11:48.374Z,24.26
2018-07-29T07:12:48.336Z,24.37
2018-07-29T07:13:48.217Z,24.71
2018-07-29T07:14:48.152Z,24.83
2018-07-29T07:15:48.076Z,24.92
2018-07-29T07:16:48.013Z,24.82
2018-07-29T07:17:47.936Z,24.83
2018-07-29T07:18:47.872Z,25.07
2018-07-29T07:19:47.789Z,25.27
2018-07-29T07:20:47.707Z,25.07
2018-07-29T07:21:47.623Z,25.20
2018-07-29T07:22:47.558Z,25.01
2018-07-29T07:23:47.515Z,24.97
2018-07-29T07:24:47.445Z,25.08
2018-07-29T07:25:47.332Z,25.31
2018-07-29T07:26:47.298Z,25.42
2018-07-29T07:27:47.185Z,24.92
2018-07-29T07:28:47.108Z,25.42
2018-07-29T07:29:47.034Z,25.59
2018-07-29T07:30:46.979Z,25.53
2018-07-29T07:31:46.871Z,25.46
2018-07-29T07:32:46.844Z,25.91
2018-07-29T07:33:46.731Z,25.53
2018-07-29T07:34:46.670Z,25.36
2018-07-29T07:35:46.608Z,25.27
2018-07-29T07:38:28.812Z,25.97
2018-07-29T07:39:28.747Z,26.20
2018-07-29T07:40:28.677Z,26.23
2018-07-29T07:41:28.579Z,26.34
2018-07-29T07:42:28.501Z,26.49
2018-07-29T07:43:28.450Z,26.73
2018-07-29T07:44:28.356Z,26.76
2018-07-29T07:45:29.314Z,26.86
2018-07-29T07:46:28.203Z,27.87
2018-07-29T07:47:28.146Z,29.39
2018-07-29T07:48:28.062Z,29.73
2018-07-29T07:49:27.999Z,29.41
2018-07-29T07:50:27.974Z,29.25
2018-07-29T07:51:27.856Z,28.88
2018-07-29T07:52:27.794Z,28.15
2018-07-29T07:53:27.705Z,28.55
2018-07-29T07:54:27.655Z,28.67
2018-07-29T07:55:27.561Z,28.45
2018-07-29T07:56:27.554Z,28.36
2018-07-29T07:57:27.431Z,29.12
2018-07-29T07:58:27.345Z,29.23
2018-07-29T08:01:09.373Z,29.92
2018-07-29T08:02:09.290Z,29.95
2018-07-29T08:03:09.181Z,29.99
2018-07-29T08:04:09.103Z,30.00
2018-07-29T08:05:09.230Z,29.66
2018-07-29T08:06:09.004Z,28.61
2018-07-29T08:07:08.889Z,28.09
2018-07-29T08:08:08.822Z,28.03
2018-07-29T08:09:08.858Z,27.84
2018-07-29T08:10:08.691Z,27.55
2018-07-29T08:11:08.637Z,27.61
2018-07-29T08:13:33.308Z,28.38
2018-07-29T08:14:33.260Z,28.09
2018-07-29T08:15:33.177Z,28.62
2018-07-29T08:16:33.191Z,28.80
2018-07-29T08:17:33.030Z,29.39
2018-07-29T08:18:32.960Z,29.67
2018-07-29T08:19:32.889Z,29.45
2018-07-29T08:20:32.839Z,29.37
2018-07-29T08:29:30.855Z,30.60
2018-07-29T08:30:30.739Z,30.66
2018-07-29T08:31:30.714Z,30.42
2018-07-29T08:32:30.605Z,30.29
2018-07-29T08:33:30.613Z,30.38
2018-07-29T08:34:30.467Z,30.08
2018-07-29T08:35:30.396Z,29.18
2018-07-29T08:36:30.314Z,28.69
2018-07-29T08:37:30.259Z,27.99
2018-07-29T08:38:30.198Z,27.98
2018-07-29T08:39:30.122Z,27.78
2018-07-29T08:40:30.045Z,28.06
2018-07-29T08:41:30.034Z,28.25
2018-07-29T08:42:29.907Z,28.60
2018-07-29T08:43:29.847Z,28.88
2018-07-29T08:44:29.750Z,28.91
2018-07-29T08:45:29.750Z,28.97
2018-07-29T08:46:29.629Z,29.37
2018-07-29T08:47:29.598Z,29.37
2018-07-29T08:48:29.468Z,28.92
2018-07-29T08:49:29.465Z,28.79
2018-07-29T08:50:29.384Z,28.69
2018-07-29T08:51:29.282Z,28.69
2018-07-29T08:52:29.199Z,28.58
2018-07-29T08:53:29.275Z,27.91
2018-07-29T08:54:29.087Z,27.91
2018-07-29T08:55:29.004Z,27.80
2018-07-29T08:56:28.935Z,27.59
2018-07-29T08:57:28.951Z,27.53
2018-07-29T08:58:28.777Z,27.88
2018-07-29T08:59:28.907Z,27.61
2018-07-29T09:00:28.645Z,27.45
2018-07-29T09:01:28.668Z,27.83
2018-07-29T09:02:28.493Z,27.91
2018-07-29T09:03:28.486Z,27.63
2018-07-29T09:04:28.401Z,27.95
2018-07-29T09:05:28.399Z,27.98
2018-07-29T09:06:28.227Z,28.18
2018-07-29T09:07:28.217Z,28.33
2018-07-29T09:08:28.090Z,28.74
2018-07-29T09:09:28.123Z,28.87
2018-07-29T09:10:27.981Z,28.92
2018-07-29T09:11:27.975Z,28.79
2018-07-29T09:12:27.786Z,28.23
2018-07-29T09:13:27.837Z,28.05
2018-07-29T09:14:27.742Z,28.45
2018-07-29T09:15:27.696Z,28.67
2018-07-29T09:16:27.529Z,29.08
2018-07-29T09:17:27.549Z,29.55
2018-07-29T09:18:27.368Z,30.44
2018-07-29T09:19:27.358Z,29.64
2018-07-29T09:20:27.424Z,29.36
2018-07-29T09:21:27.291Z,29.45
2018-07-29T09:22:27.084Z,29.51
2018-07-29T09:23:27.082Z,29.95
2018-07-29T09:24:26.955Z,29.20
2018-07-29T09:25:26.931Z,29.12
2018-07-29T09:26:26.816Z,29.03
2018-07-29T09:27:26.803Z,29.05
2018-07-29T09:28:26.677Z,29.14
2018-07-29T09:29:26.866Z,28.70
2018-07-29T09:30:26.631Z,28.60
2018-07-29T09:31:26.536Z,28.74
2018-07-29T09:32:26.461Z,29.15
2018-07-29T09:33:26.424Z,29.42
2018-07-29T09:34:26.241Z,28.60
2018-07-29T09:35:26.262Z,29.11
2018-07-29T09:36:26.130Z,28.88
2018-07-29T09:37:26.161Z,28.69
2018-07-29T09:38:25.980Z,28.79
2018-07-29T09:39:25.958Z,29.54
2018-07-29T09:40:25.849Z,29.63
2018-07-29T09:41:26.033Z,29.73
2018-07-29T09:42:25.716Z,29.64
2018-07-29T09:43:25.677Z,29.85
2018-07-29T09:44:25.557Z,29.99
2018-07-29T09:45:25.663Z,30.07
2018-07-29T09:46:25.466Z,29.94
2018-07-29T09:47:25.612Z,29.92
2018-07-29T09:48:25.291Z,29.62
2018-07-29T09:49:25.305Z,29.51
2018-07-29T09:50:25.201Z,29.25
2018-07-29T09:51:25.332Z,28.65
2018-07-29T09:52:25.024Z,28.33
2018-07-29T09:55:06.853Z,28.54
2018-07-29T09:56:06.839Z,28.33
2018-07-29T09:57:06.739Z,28.21
2018-07-29T09:58:06.728Z,28.24
2018-07-29T09:59:06.576Z,28.51
2018-07-29T10:00:06.546Z,28.67
2018-07-29T10:01:06.457Z,28.67
2018-07-29T10:02:06.492Z,28.51
2018-07-29T10:03:06.348Z,28.30
2018-07-29T10:04:06.454Z,28.39
2018-07-29T10:05:06.168Z,28.32
2018-07-29T10:07:31.065Z,28.76
2018-07-29T10:08:30.853Z,28.69
2018-07-29T10:09:30.726Z,28.98
2018-07-29T10:10:30.778Z,28.98
2018-07-29T10:11:30.572Z,28.92
2018-07-29T10:12:30.692Z,28.64
2018-07-29T10:13:30.466Z,28.52
2018-07-29T10:14:30.489Z,28.64
2018-07-29T10:15:30.339Z,28.57
2018-07-29T10:16:30.361Z,28.65
2018-07-29T10:17:30.157Z,28.62
2018-07-29T10:18:30.188Z,28.69
2018-07-29T10:19:30.076Z,28.73
2018-07-29T10:20:30.016Z,29.18
2018-07-29T10:21:29.984Z,29.15
2018-07-29T10:22:29.944Z,29.00
2018-07-29T10:23:29.757Z,28.65
2018-07-29T10:24:29.740Z,28.54
2018-07-29T10:25:29.608Z,28.55
2018-07-29T10:26:29.653Z,28.61
2018-07-29T10:27:29.447Z,28.85
2018-07-29T10:28:29.504Z,29.12
2018-07-29T10:29:29.303Z,28.92
2018-07-29T10:30:29.301Z,28.94
2018-07-29T10:31:29.153Z,28.62
2018-07-29T10:32:29.204Z,28.40
2018-07-29T10:33:29.061Z,28.28
2018-07-29T10:34:29.031Z,28.09
2018-07-29T10:35:28.884Z,28.32
2018-07-29T10:36:28.892Z,28.43
2018-07-29T10:37:28.734Z,28.65
2018-07-29T10:38:28.702Z,28.83
2018-07-29T10:39:28.620Z,28.94
2018-07-29T10:40:28.728Z,29.08
2018-07-29T10:41:28.464Z,29.12
2018-07-29T10:42:28.928Z,28.80
2018-07-29T10:43:28.315Z,28.55
2018-07-29T10:44:29.006Z,28.48
2018-07-29T10:45:28.154Z,28.80
2018-07-29T10:47:29.455Z,29.42
2018-07-29T10:47:29.961Z,29.71
2018-07-29T10:48:29.990Z,30.08
2018-07-29T10:49:29.844Z,30.21
2018-07-29T10:50:29.839Z,30.53
2018-07-29T10:51:29.674Z,30.73
2018-07-29T10:52:29.720Z,30.21
2018-07-29T10:53:29.581Z,30.21
2018-07-29T10:54:29.925Z,30.21
2018-07-29T10:55:29.410Z,30.00
2018-07-29T10:58:11.394Z,30.13
2018-07-29T10:59:11.421Z,30.25
2018-07-29T11:00:11.281Z,30.28
2018-07-29T11:01:11.246Z,30.51
2018-07-29T11:02:11.093Z,30.37
2018-07-29T11:03:11.160Z,30.06
2018-07-29T11:04:10.953Z,30.28
2018-07-29T11:06:52.910Z,30.53
2018-07-29T11:07:52.954Z,30.44
2018-07-29T11:08:52.748Z,29.99
2018-07-29T11:09:52.770Z,29.78
2018-07-29T11:10:52.642Z,29.55
2018-07-29T11:11:52.686Z,29.39
2018-07-29T11:12:52.484Z,29.55
2018-07-29T11:13:52.600Z,29.37
2018-07-29T11:14:52.333Z,29.14
2018-07-29T11:15:52.299Z,29.20
2018-07-29T11:16:52.238Z,29.21
2018-07-29T11:17:52.314Z,29.27
2018-07-29T11:18:52.056Z,29.51
2018-07-29T11:21:33.942Z,29.37
2018-07-29T11:24:15.886Z,28.95
2018-07-29T11:26:57.941Z,29.14
2018-07-29T11:27:58.006Z,29.35
2018-07-29T11:28:57.778Z,29.55
2018-07-29T11:29:57.738Z,29.39
2018-07-29T11:30:57.635Z,29.41
2018-07-29T11:31:57.752Z,29.60
2018-07-29T11:32:57.502Z,29.62
2018-07-29T11:36:22.450Z,29.12
2018-07-29T11:37:43.347Z,28.54
2018-07-29T11:38:22.268Z,28.80
2018-07-29T11:41:04.414Z,29.17
2018-07-29T11:42:04.496Z,28.92
2018-07-29T11:45:01.409Z,28.73
2018-07-29T11:46:22.311Z,28.72
2018-07-29T11:47:01.295Z,28.58
2018-07-29T11:48:01.433Z,28.54
2018-07-29T11:49:01.121Z,28.65
2018-07-29T11:50:01.239Z,28.57
2018-07-29T11:51:00.985Z,28.69
2018-07-29T11:52:00.988Z,28.89
2018-07-29T11:53:00.886Z,29.10
2018-07-29T11:54:00.849Z,28.92
2018-07-29T11:55:00.687Z,28.76
2018-07-29T11:56:00.647Z,28.70
2018-07-29T11:57:00.562Z,28.80
2018-07-29T11:58:00.592Z,28.91
2018-07-29T11:59:00.424Z,28.97
2018-07-29T12:00:03.755Z,28.87
2018-07-29T12:01:00.277Z,28.76
2018-07-29T12:02:00.291Z,28.55
2018-07-29T12:03:00.191Z,28.50
2018-07-29T12:04:00.167Z,28.43
2018-07-29T12:04:59.978Z,28.42
2018-07-29T12:06:00.026Z,28.21
2018-07-29T12:06:59.841Z,28.08
2018-07-29T12:07:59.842Z,28.28
2018-07-29T12:08:59.699Z,28.58
2018-07-29T12:09:59.728Z,28.52
2018-07-29T12:10:59.582Z,28.43
2018-07-29T12:13:45.450Z,28.35
2018-07-29T12:14:45.430Z,28.51
2018-07-29T12:15:45.283Z,28.74
2018-07-29T12:16:45.235Z,28.69
2018-07-29T12:17:45.165Z,28.62
2018-07-29T12:18:46.203Z,28.42
2018-07-29T12:19:44.981Z,28.50
2018-07-29T12:20:44.955Z,28.52
2018-07-29T12:21:44.848Z,28.70
2018-07-29T12:22:44.893Z,28.92
2018-07-29T12:23:44.726Z,28.91
2018-07-29T12:24:44.704Z,28.85
2018-07-29T12:25:44.553Z,28.95
2018-07-29T12:26:44.595Z,29.02
2018-07-29T12:27:44.424Z,29.07
2018-07-29T12:28:44.442Z,29.15
2018-07-29T12:29:44.279Z,29.08
2018-07-29T12:30:44.291Z,29.02
2018-07-29T12:31:44.129Z,29.03
2018-07-29T12:34:26.452Z,29.12
2018-07-29T12:37:08.430Z,28.89
2018-07-29T12:38:29.367Z,28.89
2018-07-29T12:39:08.296Z,28.85
2018-07-29T12:40:08.336Z,28.73
2018-07-29T12:41:08.151Z,28.87
2018-07-29T12:43:50.446Z,29.02
2018-07-29T12:44:50.497Z,29.11
2018-07-29T12:45:50.279Z,29.12
2018-07-29T12:46:50.261Z,29.14
2018-07-29T12:47:50.137Z,28.82
2018-07-29T12:48:50.203Z,28.46
2018-07-29T12:49:49.992Z,28.65
2018-07-29T12:50:50.018Z,28.82
2018-07-29T12:51:49.854Z,28.89
2018-07-29T12:52:49.882Z,28.98
2018-07-29T12:53:49.732Z,28.95
2018-07-29T12:54:49.732Z,28.80
2018-07-29T12:55:49.568Z,28.89
2018-07-29T12:56:49.610Z,28.87
2018-07-29T12:57:49.468Z,28.87
2018-07-29T12:58:49.702Z,28.52
2018-07-29T12:59:49.309Z,28.30
2018-07-29T13:00:49.333Z,28.21
2018-07-29T13:01:49.141Z,28.25
2018-07-29T13:02:49.141Z,28.20
2018-07-29T13:03:49.009Z,28.39
2018-07-29T13:04:49.088Z,28.27
2018-07-29T13:05:48.875Z,28.35
2018-07-29T13:06:48.872Z,28.38
2018-07-29T13:07:48.721Z,28.36
2018-07-29T13:08:48.786Z,28.43
2018-07-29T13:09:48.584Z,28.65
2018-07-29T13:10:48.596Z,28.54
2018-07-29T13:11:48.431Z,28.74
2018-07-29T13:14:30.458Z,28.85
2018-07-29T13:15:30.500Z,28.52
2018-07-29T13:16:30.279Z,28.55
2018-07-29T13:17:30.320Z,28.57
2018-07-29T13:18:30.152Z,28.62
2018-07-29T13:19:30.245Z,28.74
2018-07-29T13:20:30.083Z,28.74
2018-07-29T13:21:30.036Z,28.74
2018-07-29T13:22:29.865Z,28.97
2018-07-29T13:23:29.941Z,29.15
2018-07-29T13:24:29.730Z,29.21
2018-07-29T13:25:29.782Z,29.41
2018-07-29T13:26:29.555Z,29.39
2018-07-29T13:29:11.447Z,28.98
2018-07-29T13:30:11.590Z,28.97
2018-07-29T13:31:11.311Z,28.98
2018-07-29T13:32:11.401Z,28.98
2018-07-29T13:33:11.145Z,28.97
2018-07-29T13:34:11.178Z,28.95
2018-07-29T13:35:11.010Z,28.94
2018-07-29T13:36:12.043Z,28.95
2018-07-29T13:37:10.861Z,28.97
2018-07-29T13:38:10.895Z,29.05
2018-07-29T13:39:10.713Z,29.17
2018-07-29T13:40:10.810Z,29.14
2018-07-29T13:41:10.604Z,29.15
2018-07-29T13:42:10.727Z,29.18
2018-07-29T13:43:10.453Z,29.25
2018-07-29T13:44:10.577Z,29.36
2018-07-29T13:45:10.294Z,29.29
2018-07-29T13:46:10.338Z,29.07
2018-07-29T13:47:10.157Z,29.12
2018-07-29T13:48:10.148Z,29.08
2018-07-29T13:49:10.002Z,29.18
2018-07-29T13:50:10.053Z,29.10
2018-07-29T13:51:09.907Z,29.15
2018-07-29T13:52:09.877Z,29.20
2018-07-29T13:53:09.717Z,29.12
2018-07-29T13:54:09.777Z,29.15
2018-07-29T13:56:34.510Z,29.27
2018-07-29T13:57:34.479Z,29.27
2018-07-29T13:58:34.318Z,29.44
2018-07-29T13:59:34.395Z,29.55
2018-07-29T14:00:34.226Z,29.62
2018-07-29T14:01:34.185Z,29.58
2018-07-29T14:02:34.057Z,29.45
2018-07-29T14:03:34.162Z,29.49
2018-07-29T14:04:33.893Z,29.64
2018-07-29T14:05:33.920Z,29.64
2018-07-29T14:06:33.737Z,29.81
2018-07-29T14:07:33.867Z,29.66
2018-07-29T14:08:33.584Z,29.64
2018-07-29T14:09:33.635Z,29.67
2018-07-29T14:10:33.442Z,29.81
2018-07-29T14:13:15.506Z,29.39
2018-07-29T14:14:15.653Z,29.66
2018-07-29T14:15:15.339Z,29.69
2018-07-29T14:16:15.359Z,29.76
2018-07-29T14:17:15.203Z,29.71
2018-07-29T14:18:15.325Z,29.57
2018-07-29T14:19:15.106Z,29.41
2018-07-29T14:20:15.105Z,29.55
2018-07-29T14:21:14.893Z,29.60
2018-07-29T14:22:15.028Z,29.58
2018-07-29T14:23:14.770Z,29.74
2018-07-29T14:24:14.807Z,29.81
2018-07-29T14:25:14.605Z,29.66
2018-07-29T14:26:14.715Z,29.69
2018-07-29T14:27:14.476Z,29.95
2018-07-29T14:28:14.548Z,29.99
2018-07-29T14:29:14.308Z,29.92
2018-07-29T14:30:14.327Z,30.16
2018-07-29T14:31:14.155Z,29.99
2018-07-29T14:32:14.244Z,30.11
2018-07-29T14:33:14.018Z,30.03
2018-07-29T14:34:14.020Z,30.28
2018-07-29T14:35:13.891Z,30.21
2018-07-29T14:37:55.977Z,30.04
2018-07-29T14:39:17.072Z,30.00
2018-07-29T14:39:55.833Z,30.13
2018-07-29T14:40:55.878Z,29.95
2018-07-29T14:41:55.684Z,29.86
2018-07-29T14:44:37.985Z,30.13
2018-07-29T14:45:38.155Z,30.26
2018-07-29T15:07:17.880Z,30.68
2018-07-29T15:08:17.633Z,30.57
2018-07-29T15:09:17.687Z,30.66
2018-07-29T15:10:17.642Z,30.76
2018-07-29T15:11:17.690Z,30.85
2018-07-29T15:12:17.373Z,31.03
2018-07-29T15:13:17.401Z,31.18
2018-07-29T15:14:17.283Z,31.15
2018-07-29T15:15:18.398Z,31.19
2018-07-29T15:16:17.156Z,31.28
2018-07-29T15:17:17.184Z,31.46
2018-07-29T15:18:16.919Z,31.49
2018-07-29T15:19:17.042Z,31.45
2018-07-29T15:20:16.782Z,31.37
2018-07-29T15:21:16.865Z,31.34
2018-07-29T15:22:16.651Z,31.32
2018-07-29T15:23:16.743Z,31.27
2018-07-29T15:24:16.581Z,31.31
2018-07-29T15:25:17.608Z,31.20
2018-07-29T15:26:16.374Z,30.98
2018-07-29T15:27:16.387Z,30.91
2018-07-29T15:28:16.249Z,30.78
2018-07-29T15:29:16.311Z,30.70
2018-07-29T15:30:16.097Z,30.73
2018-07-29T15:31:16.265Z,30.60
2018-07-29T15:32:15.945Z,30.79
2018-07-29T15:33:16.004Z,30.81
2018-07-29T15:34:15.870Z,30.88
2018-07-29T15:35:15.904Z,30.96
2018-07-29T15:36:15.660Z,30.98
2018-07-29T15:37:15.725Z,30.98
2018-07-29T15:38:15.487Z,30.98
2018-07-29T15:39:15.958Z,30.98
2018-07-29T15:40:15.419Z,30.78
2018-07-29T15:41:15.465Z,30.76
2018-07-29T15:42:23.621Z,30.78
2018-07-29T15:43:15.535Z,30.64
2018-07-29T15:44:15.061Z,30.56
2018-07-29T15:45:15.176Z,30.54
2018-07-29T15:46:14.955Z,30.72
2018-07-29T15:47:15.075Z,30.72
2018-07-29T15:48:14.848Z,30.75
2018-07-29T15:49:14.889Z,30.73
2018-07-29T15:50:14.750Z,30.73
2018-07-29T15:51:14.732Z,30.70
2018-07-29T15:52:14.520Z,30.79
2018-07-29T15:53:14.632Z,30.72
2018-07-29T15:54:14.360Z,30.66
2018-07-29T15:55:14.399Z,30.63
2018-07-29T15:56:14.224Z,30.59
2018-07-29T15:57:14.395Z,30.85
2018-07-29T15:58:14.070Z,30.94